sensor_id;sensor_type;location;lat;lon;timestamp;P1;durP1;ratioP1;P2;durP2;ratioP2
22318;SDS011;11327;52.334;9.506;2023-04-25T00:00:36;11.80;;;5.30;;
22318;SDS011;11327;52.334;9.506;2023-04-25T00:03:57;12.13;;;5.42;;
22318;SDS011;11327;52.334;9.506;2023-04-25T00:07:17;10.70;;;4.47;;
22318;SDS011;11327;52.334;9.506;2023-04-25T00:10:38;10.38;;;5.00;;
22318;SDS011;11327;52.334;9.506;2023-04-25T00:13:59;14.05;;;5.15;;
22318;SDS011;11327;52.334;9.506;2023-04-25T00:17:22;13.35;;;4.90;;
22318;SDS011;11327;52.334;9.506;2023-04-25T00:20:44;11.53;;;5.25;;
22318;SDS011;11327;52.334;9.506;2023-04-25T00:24:07;11.18;;;5.00;;
22318;SDS011;11327;52.334;9.506;2023-04-25T00:27:28;11.88;;;5.12;;
22318;SDS011;11327;52.334;9.506;2023-04-25T00:30:48;10.28;;;4.90;;
22318;SDS011;11327;52.334;9.506;2023-04-25T00:34:09;11.70;;;5.60;;
22318;SDS011;11327;52.334;9.506;2023-04-25T00:37:30;10.53;;;5.25;;
22318;SDS011;11327;52.334;9.506;2023-04-25T00:40:51;16.20;;;5.72;;
22318;SDS011;11327;52.334;9.506;2023-04-25T00:44:13;11.22;;;5.78;;
22318;SDS011;11327;52.334;9.506;2023-04-25T00:47:37;14.78;;;5.35;;
22318;SDS011;11327;52.334;9.506;2023-04-25T00:50:58;11.55;;;5.62;;
22318;SDS011;11327;52.334;9.506;2023-04-25T00:54:20;14.73;;;6.03;;
22318;SDS011;11327;52.334;9.506;2023-04-25T00:57:41;12.25;;;5.70;;
22318;SDS011;11327;52.334;9.506;2023-04-25T01:01:02;14.87;;;6.12;;
22318;SDS011;11327;52.334;9.506;2023-04-25T01:04:23;14.23;;;6.03;;
22318;SDS011;11327;52.334;9.506;2023-04-25T01:07:44;11.30;;;6.22;;
22318;SDS011;11327;52.334;9.506;2023-04-25T01:11:05;12.88;;;6.30;;
22318;SDS011;11327;52.334;9.506;2023-04-25T01:14:27;12.70;;;6.30;;
22318;SDS011;11327;52.334;9.506;2023-04-25T01:17:47;14.73;;;6.58;;
22318;SDS011;11327;52.334;9.506;2023-04-25T01:21:10;14.73;;;6.53;;
22318;SDS011;11327;52.334;9.506;2023-04-25T01:24:31;9.70;;;6.22;;
22318;SDS011;11327;52.334;9.506;2023-04-25T01:27:53;12.80;;;6.58;;
22318;SDS011;11327;52.334;9.506;2023-04-25T01:31:14;16.17;;;6.60;;
22318;SDS011;11327;52.334;9.506;2023-04-25T01:34:36;15.20;;;7.10;;
22318;SDS011;11327;52.334;9.506;2023-04-25T01:37:57;16.75;;;7.92;;
22318;SDS011;11327;52.334;9.506;2023-04-25T01:41:18;11.35;;;6.75;;
22318;SDS011;11327;52.334;9.506;2023-04-25T01:44:39;13.03;;;6.78;;
22318;SDS011;11327;52.334;9.506;2023-04-25T01:48:00;15.38;;;7.45;;
22318;SDS011;11327;52.334;9.506;2023-04-25T01:51:20;14.68;;;7.03;;
22318;SDS011;11327;52.334;9.506;2023-04-25T01:54:41;13.60;;;7.10;;
22318;SDS011;11327;52.334;9.506;2023-04-25T01:58:04;15.10;;;7.20;;
22318;SDS011;11327;52.334;9.506;2023-04-25T02:01:33;12.98;;;6.30;;
22318;SDS011;11327;52.334;9.506;2023-04-25T02:04:53;10.08;;;6.42;;
22318;SDS011;11327;52.334;9.506;2023-04-25T02:08:16;10.35;;;6.25;;
22318;SDS011;11327;52.334;9.506;2023-04-25T02:11:38;13.08;;;6.30;;
22318;SDS011;11327;52.334;9.506;2023-04-25T02:14:59;10.72;;;6.67;;
22318;SDS011;11327;52.334;9.506;2023-04-25T02:18:19;13.30;;;7.00;;
22318;SDS011;11327;52.334;9.506;2023-04-25T02:21:41;13.53;;;6.12;;
22318;SDS011;11327;52.334;9.506;2023-04-25T02:25:02;15.68;;;5.78;;
22318;SDS011;11327;52.334;9.506;2023-04-25T02:28:25;16.02;;;5.53;;
22318;SDS011;11327;52.334;9.506;2023-04-25T02:31:46;10.93;;;4.97;;
22318;SDS011;11327;52.334;9.506;2023-04-25T02:35:07;14.03;;;4.78;;
22318;SDS011;11327;52.334;9.506;2023-04-25T02:38:28;13.20;;;5.20;;
22318;SDS011;11327;52.334;9.506;2023-04-25T02:41:49;13.05;;;5.62;;
22318;SDS011;11327;52.334;9.506;2023-04-25T02:45:10;13.68;;;4.90;;
22318;SDS011;11327;52.334;9.506;2023-04-25T02:48:30;15.90;;;5.92;;
22318;SDS011;11327;52.334;9.506;2023-04-25T02:51:51;11.80;;;5.05;;
22318;SDS011;11327;52.334;9.506;2023-04-25T02:55:12;12.68;;;5.40;;
22318;SDS011;11327;52.334;9.506;2023-04-25T02:58:34;10.90;;;5.12;;
22318;SDS011;11327;52.334;9.506;2023-04-25T03:01:54;11.65;;;5.50;;
22318;SDS011;11327;52.334;9.506;2023-04-25T03:05:15;11.45;;;5.30;;
22318;SDS011;11327;52.334;9.506;2023-04-25T03:08:37;12.68;;;5.58;;
22318;SDS011;11327;52.334;9.506;2023-04-25T03:11:57;13.10;;;5.53;;
22318;SDS011;11327;52.334;9.506;2023-04-25T03:15:18;18.60;;;6.20;;
22318;SDS011;11327;52.334;9.506;2023-04-25T03:18:39;15.35;;;5.67;;
22318;SDS011;11327;52.334;9.506;2023-04-25T03:22:00;13.50;;;5.78;;
22318;SDS011;11327;52.334;9.506;2023-04-25T03:25:20;12.93;;;5.67;;
22318;SDS011;11327;52.334;9.506;2023-04-25T03:28:41;15.08;;;5.10;;
22318;SDS011;11327;52.334;9.506;2023-04-25T03:32:02;17.48;;;5.65;;
22318;SDS011;11327;52.334;9.506;2023-04-25T03:35:23;15.30;;;5.00;;
22318;SDS011;11327;52.334;9.506;2023-04-25T03:38:44;13.72;;;4.45;;
22318;SDS011;11327;52.334;9.506;2023-04-25T03:42:04;15.70;;;4.17;;
22318;SDS011;11327;52.334;9.506;2023-04-25T03:45:25;15.98;;;5.53;;
22318;SDS011;11327;52.334;9.506;2023-04-25T03:48:46;13.88;;;5.37;;
22318;SDS011;11327;52.334;9.506;2023-04-25T03:52:06;14.50;;;4.42;;
22318;SDS011;11327;52.334;9.506;2023-04-25T03:55:27;14.83;;;4.45;;
22318;SDS011;11327;52.334;9.506;2023-04-25T03:58:48;16.93;;;4.62;;
22318;SDS011;11327;52.334;9.506;2023-04-25T04:02:09;16.97;;;5.05;;
22318;SDS011;11327;52.334;9.506;2023-04-25T04:05:30;16.73;;;5.55;;
22318;SDS011;11327;52.334;9.506;2023-04-25T04:08:51;15.35;;;4.40;;
22318;SDS011;11327;52.334;9.506;2023-04-25T04:12:12;12.50;;;4.25;;
22318;SDS011;11327;52.334;9.506;2023-04-25T04:15:32;17.73;;;4.95;;
22318;SDS011;11327;52.334;9.506;2023-04-25T04:18:53;16.37;;;4.60;;
22318;SDS011;11327;52.334;9.506;2023-04-25T04:22:14;13.95;;;4.50;;
22318;SDS011;11327;52.334;9.506;2023-04-25T04:25:35;18.32;;;5.03;;
22318;SDS011;11327;52.334;9.506;2023-04-25T04:28:56;15.25;;;4.67;;
22318;SDS011;11327;52.334;9.506;2023-04-25T04:32:16;16.93;;;5.15;;
22318;SDS011;11327;52.334;9.506;2023-04-25T04:35:37;14.53;;;4.45;;
22318;SDS011;11327;52.334;9.506;2023-04-25T04:38:58;17.05;;;4.35;;
22318;SDS011;11327;52.334;9.506;2023-04-25T04:42:19;15.23;;;4.85;;
22318;SDS011;11327;52.334;9.506;2023-04-25T04:45:39;15.93;;;4.80;;
22318;SDS011;11327;52.334;9.506;2023-04-25T04:49:00;15.00;;;4.85;;
22318;SDS011;11327;52.334;9.506;2023-04-25T04:52:21;16.62;;;4.60;;
22318;SDS011;11327;52.334;9.506;2023-04-25T04:55:42;17.87;;;4.53;;
22318;SDS011;11327;52.334;9.506;2023-04-25T04:59:03;15.32;;;4.42;;
22318;SDS011;11327;52.334;9.506;2023-04-25T05:02:23;16.23;;;4.15;;
22318;SDS011;11327;52.334;9.506;2023-04-25T05:05:44;12.25;;;4.60;;
22318;SDS011;11327;52.334;9.506;2023-04-25T05:09:06;18.25;;;4.97;;
22318;SDS011;11327;52.334;9.506;2023-04-25T05:12:26;17.40;;;4.75;;
22318;SDS011;11327;52.334;9.506;2023-04-25T05:15:47;16.32;;;4.58;;
22318;SDS011;11327;52.334;9.506;2023-04-25T05:19:08;17.50;;;4.70;;
22318;SDS011;11327;52.334;9.506;2023-04-25T05:22:28;17.85;;;4.78;;
22318;SDS011;11327;52.334;9.506;2023-04-25T05:25:49;17.80;;;5.37;;
22318;SDS011;11327;52.334;9.506;2023-04-25T05:29:10;16.12;;;5.10;;
22318;SDS011;11327;52.334;9.506;2023-04-25T05:32:31;14.87;;;3.98;;
22318;SDS011;11327;52.334;9.506;2023-04-25T05:35:51;16.95;;;5.05;;
22318;SDS011;11327;52.334;9.506;2023-04-25T05:39:12;15.60;;;4.87;;
22318;SDS011;11327;52.334;9.506;2023-04-25T05:42:33;17.02;;;4.50;;
22318;SDS011;11327;52.334;9.506;2023-04-25T05:45:54;18.17;;;4.70;;
22318;SDS011;11327;52.334;9.506;2023-04-25T05:49:15;17.23;;;4.67;;
22318;SDS011;11327;52.334;9.506;2023-04-25T05:52:36;15.72;;;4.25;;
22318;SDS011;11327;52.334;9.506;2023-04-25T05:55:56;18.27;;;4.60;;
22318;SDS011;11327;52.334;9.506;2023-04-25T05:59:17;13.75;;;4.55;;
22318;SDS011;11327;52.334;9.506;2023-04-25T06:02:38;18.67;;;4.10;;
22318;SDS011;11327;52.334;9.506;2023-04-25T06:05:58;17.42;;;4.03;;
22318;SDS011;11327;52.334;9.506;2023-04-25T06:09:19;15.18;;;3.95;;
22318;SDS011;11327;52.334;9.506;2023-04-25T06:12:40;15.68;;;3.80;;
22318;SDS011;11327;52.334;9.506;2023-04-25T06:16:01;17.02;;;3.80;;
22318;SDS011;11327;52.334;9.506;2023-04-25T06:19:21;15.58;;;4.35;;
22318;SDS011;11327;52.334;9.506;2023-04-25T06:22:42;14.30;;;4.35;;
22318;SDS011;11327;52.334;9.506;2023-04-25T06:26:03;16.25;;;4.42;;
22318;SDS011;11327;52.334;9.506;2023-04-25T06:29:24;17.87;;;4.72;;
22318;SDS011;11327;52.334;9.506;2023-04-25T06:32:45;17.45;;;4.70;;
22318;SDS011;11327;52.334;9.506;2023-04-25T06:36:05;13.70;;;4.30;;
22318;SDS011;11327;52.334;9.506;2023-04-25T06:39:26;14.25;;;3.85;;
22318;SDS011;11327;52.334;9.506;2023-04-25T06:42:47;17.55;;;4.28;;
22318;SDS011;11327;52.334;9.506;2023-04-25T06:46:08;16.25;;;3.92;;
22318;SDS011;11327;52.334;9.506;2023-04-25T06:49:29;13.53;;;3.60;;
22318;SDS011;11327;52.334;9.506;2023-04-25T06:52:49;14.47;;;3.95;;
22318;SDS011;11327;52.334;9.506;2023-04-25T06:56:10;14.38;;;4.35;;
22318;SDS011;11327;52.334;9.506;2023-04-25T06:59:31;13.50;;;3.65;;
22318;SDS011;11327;52.334;9.506;2023-04-25T07:02:53;15.48;;;3.95;;
22318;SDS011;11327;52.334;9.506;2023-04-25T07:06:13;13.95;;;3.42;;
22318;SDS011;11327;52.334;9.506;2023-04-25T07:09:34;11.70;;;3.60;;
22318;SDS011;11327;52.334;9.506;2023-04-25T07:12:55;16.62;;;3.47;;
22318;SDS011;11327;52.334;9.506;2023-04-25T07:16:16;14.07;;;3.37;;
22318;SDS011;11327;52.334;9.506;2023-04-25T07:19:36;8.28;;;2.67;;
22318;SDS011;11327;52.334;9.506;2023-04-25T07:22:59;10.43;;;2.98;;
22318;SDS011;11327;52.334;9.506;2023-04-25T07:26:20;10.65;;;2.77;;
22318;SDS011;11327;52.334;9.506;2023-04-25T07:29:40;12.90;;;2.90;;
22318;SDS011;11327;52.334;9.506;2023-04-25T07:33:02;12.73;;;3.67;;
22318;SDS011;11327;52.334;9.506;2023-04-25T07:36:23;10.03;;;2.87;;
22318;SDS011;11327;52.334;9.506;2023-04-25T07:39:44;16.30;;;3.58;;
22318;SDS011;11327;52.334;9.506;2023-04-25T07:43:07;12.88;;;3.40;;
22318;SDS011;11327;52.334;9.506;2023-04-25T07:46:27;9.83;;;2.72;;
22318;SDS011;11327;52.334;9.506;2023-04-25T07:49:48;10.72;;;2.60;;
22318;SDS011;11327;52.334;9.506;2023-04-25T07:53:09;16.95;;;2.77;;
22318;SDS011;11327;52.334;9.506;2023-04-25T07:56:30;11.65;;;2.25;;
22318;SDS011;11327;52.334;9.506;2023-04-25T07:59:51;10.82;;;2.55;;
22318;SDS011;11327;52.334;9.506;2023-04-25T08:03:12;10.60;;;2.80;;
22318;SDS011;11327;52.334;9.506;2023-04-25T08:06:33;7.83;;;2.90;;
22318;SDS011;11327;52.334;9.506;2023-04-25T08:09:54;10.65;;;2.40;;
22318;SDS011;11327;52.334;9.506;2023-04-25T08:13:15;9.88;;;2.27;;
22318;SDS011;11327;52.334;9.506;2023-04-25T08:16:35;8.08;;;1.82;;
22318;SDS011;11327;52.334;9.506;2023-04-25T08:19:56;8.75;;;1.95;;
22318;SDS011;11327;52.334;9.506;2023-04-25T08:23:17;7.53;;;1.70;;
22318;SDS011;11327;52.334;9.506;2023-04-25T08:26:38;9.68;;;2.00;;
22318;SDS011;11327;52.334;9.506;2023-04-25T08:29:59;9.38;;;1.98;;
22318;SDS011;11327;52.334;9.506;2023-04-25T08:33:20;10.55;;;2.33;;
22318;SDS011;11327;52.334;9.506;2023-04-25T08:36:40;9.10;;;2.20;;
22318;SDS011;11327;52.334;9.506;2023-04-25T08:40:01;8.65;;;2.22;;
22318;SDS011;11327;52.334;9.506;2023-04-25T08:43:23;11.70;;;2.55;;
22318;SDS011;11327;52.334;9.506;2023-04-25T08:46:45;10.98;;;2.40;;
22318;SDS011;11327;52.334;9.506;2023-04-25T08:50:09;8.05;;;2.33;;
22318;SDS011;11327;52.334;9.506;2023-04-25T08:53:31;8.20;;;2.30;;
22318;SDS011;11327;52.334;9.506;2023-04-25T08:56:52;8.45;;;2.05;;
22318;SDS011;11327;52.334;9.506;2023-04-25T09:00:15;7.85;;;2.60;;
22318;SDS011;11327;52.334;9.506;2023-04-25T09:03:37;10.32;;;2.33;;
22318;SDS011;11327;52.334;9.506;2023-04-25T09:06:58;6.35;;;1.90;;
22318;SDS011;11327;52.334;9.506;2023-04-25T09:10:19;7.85;;;1.90;;
22318;SDS011;11327;52.334;9.506;2023-04-25T09:13:40;7.70;;;1.85;;
22318;SDS011;11327;52.334;9.506;2023-04-25T09:17:02;7.67;;;2.05;;
22318;SDS011;11327;52.334;9.506;2023-04-25T09:20:24;4.70;;;1.42;;
22318;SDS011;11327;52.334;9.506;2023-04-25T09:23:48;6.00;;;1.25;;
22318;SDS011;11327;52.334;9.506;2023-04-25T09:27:12;9.15;;;1.70;;
22318;SDS011;11327;52.334;9.506;2023-04-25T09:30:36;6.47;;;1.42;;
22318;SDS011;11327;52.334;9.506;2023-04-25T09:34:00;5.17;;;1.60;;
22318;SDS011;11327;52.334;9.506;2023-04-25T09:37:22;5.22;;;1.50;;
22318;SDS011;11327;52.334;9.506;2023-04-25T09:40:45;8.38;;;2.22;;
22318;SDS011;11327;52.334;9.506;2023-04-25T09:44:07;5.90;;;1.57;;
22318;SDS011;11327;52.334;9.506;2023-04-25T09:47:28;8.75;;;2.08;;
22318;SDS011;11327;52.334;9.506;2023-04-25T09:54:31;5.60;;;1.60;;
22318;SDS011;11327;52.334;9.506;2023-04-25T09:57:51;6.42;;;1.92;;
22318;SDS011;11327;52.334;9.506;2023-04-25T10:01:13;8.08;;;2.00;;
22318;SDS011;11327;52.334;9.506;2023-04-25T10:04:36;5.78;;;1.60;;
22318;SDS011;11327;52.334;9.506;2023-04-25T10:07:58;4.40;;;1.60;;
22318;SDS011;11327;52.334;9.506;2023-04-25T10:11:22;5.70;;;1.40;;
22318;SDS011;11327;52.334;9.506;2023-04-25T10:14:45;7.65;;;2.00;;
22318;SDS011;11327;52.334;9.506;2023-04-25T10:18:06;4.67;;;1.70;;
22318;SDS011;11327;52.334;9.506;2023-04-25T10:21:27;10.70;;;2.37;;
22318;SDS011;11327;52.334;9.506;2023-04-25T10:24:51;7.20;;;2.10;;
22318;SDS011;11327;52.334;9.506;2023-04-25T10:28:12;5.70;;;1.72;;
22318;SDS011;11327;52.334;9.506;2023-04-25T10:31:33;8.30;;;1.85;;
22318;SDS011;11327;52.334;9.506;2023-04-25T10:35:02;8.63;;;1.98;;
22318;SDS011;11327;52.334;9.506;2023-04-25T10:38:31;6.42;;;1.95;;
22318;SDS011;11327;52.334;9.506;2023-04-25T10:41:57;9.50;;;1.87;;
22318;SDS011;11327;52.334;9.506;2023-04-25T10:45:19;4.95;;;1.65;;
22318;SDS011;11327;52.334;9.506;2023-04-25T10:48:48;6.60;;;1.70;;
22318;SDS011;11327;52.334;9.506;2023-04-25T10:52:11;7.22;;;1.70;;
22318;SDS011;11327;52.334;9.506;2023-04-25T10:55:49;7.67;;;1.90;;
22318;SDS011;11327;52.334;9.506;2023-04-25T10:59:14;5.72;;;1.87;;
22318;SDS011;11327;52.334;9.506;2023-04-25T11:02:43;6.35;;;2.08;;
22318;SDS011;11327;52.334;9.506;2023-04-25T11:06:11;6.40;;;1.80;;
22318;SDS011;11327;52.334;9.506;2023-04-25T11:09:33;7.37;;;1.90;;
22318;SDS011;11327;52.334;9.506;2023-04-25T11:12:55;8.00;;;2.37;;
22318;SDS011;11327;52.334;9.506;2023-04-25T11:16:16;5.50;;;1.57;;
22318;SDS011;11327;52.334;9.506;2023-04-25T11:19:37;5.70;;;1.50;;
22318;SDS011;11327;52.334;9.506;2023-04-25T11:22:58;6.67;;;1.70;;
22318;SDS011;11327;52.334;9.506;2023-04-25T11:26:20;7.30;;;1.77;;
22318;SDS011;11327;52.334;9.506;2023-04-25T11:29:41;7.03;;;1.60;;
22318;SDS011;11327;52.334;9.506;2023-04-25T11:33:01;6.62;;;2.10;;
22318;SDS011;11327;52.334;9.506;2023-04-25T11:36:23;6.20;;;1.72;;
22318;SDS011;11327;52.334;9.506;2023-04-25T11:39:46;7.47;;;1.70;;
22318;SDS011;11327;52.334;9.506;2023-04-25T11:43:07;8.95;;;1.90;;
22318;SDS011;11327;52.334;9.506;2023-04-25T11:46:30;6.50;;;1.72;;
22318;SDS011;11327;52.334;9.506;2023-04-25T11:49:52;7.60;;;1.65;;
22318;SDS011;11327;52.334;9.506;2023-04-25T11:53:13;5.55;;;1.57;;
22318;SDS011;11327;52.334;9.506;2023-04-25T11:56:35;5.05;;;1.60;;
22318;SDS011;11327;52.334;9.506;2023-04-25T11:59:55;6.42;;;1.50;;
22318;SDS011;11327;52.334;9.506;2023-04-25T12:03:18;6.53;;;2.02;;
22318;SDS011;11327;52.334;9.506;2023-04-25T12:06:39;3.00;;;1.40;;
22318;SDS011;11327;52.334;9.506;2023-04-25T12:10:05;5.03;;;1.55;;
22318;SDS011;11327;52.334;9.506;2023-04-25T12:13:29;4.95;;;0.88;;
22318;SDS011;11327;52.334;9.506;2023-04-25T12:16:52;2.15;;;0.78;;
22318;SDS011;11327;52.334;9.506;2023-04-25T12:20:21;3.98;;;0.95;;
22318;SDS011;11327;52.334;9.506;2023-04-25T12:23:44;3.10;;;1.00;;
22318;SDS011;11327;52.334;9.506;2023-04-25T12:27:06;4.83;;;1.15;;
22318;SDS011;11327;52.334;9.506;2023-04-25T12:30:28;2.75;;;1.00;;
22318;SDS011;11327;52.334;9.506;2023-04-25T12:33:49;3.08;;;0.93;;
22318;SDS011;11327;52.334;9.506;2023-04-25T12:37:09;5.22;;;1.15;;
22318;SDS011;11327;52.334;9.506;2023-04-25T12:40:31;2.08;;;0.80;;
22318;SDS011;11327;52.334;9.506;2023-04-25T12:43:53;3.95;;;1.00;;
22318;SDS011;11327;52.334;9.506;2023-04-25T12:47:14;1.82;;;0.78;;
22318;SDS011;11327;52.334;9.506;2023-04-25T12:50:35;2.77;;;1.07;;
22318;SDS011;11327;52.334;9.506;2023-04-25T12:53:57;2.85;;;1.00;;
22318;SDS011;11327;52.334;9.506;2023-04-25T12:57:21;2.90;;;0.98;;
22318;SDS011;11327;52.334;9.506;2023-04-25T13:00:42;3.05;;;1.05;;
22318;SDS011;11327;52.334;9.506;2023-04-25T13:04:04;4.15;;;1.20;;
22318;SDS011;11327;52.334;9.506;2023-04-25T13:07:25;3.77;;;1.22;;
22318;SDS011;11327;52.334;9.506;2023-04-25T13:10:47;4.78;;;1.55;;
22318;SDS011;11327;52.334;9.506;2023-04-25T13:14:08;4.40;;;1.47;;
22318;SDS011;11327;52.334;9.506;2023-04-25T13:17:29;3.50;;;1.60;;
22318;SDS011;11327;52.334;9.506;2023-04-25T13:20:50;3.37;;;1.17;;
22318;SDS011;11327;52.334;9.506;2023-04-25T13:24:11;3.87;;;1.42;;
22318;SDS011;11327;52.334;9.506;2023-04-25T13:27:32;4.70;;;1.40;;
22318;SDS011;11327;52.334;9.506;2023-04-25T13:30:54;5.65;;;2.25;;
22318;SDS011;11327;52.334;9.506;2023-04-25T13:34:15;5.10;;;1.62;;
22318;SDS011;11327;52.334;9.506;2023-04-25T13:37:36;3.27;;;1.40;;
22318;SDS011;11327;52.334;9.506;2023-04-25T13:40:58;4.10;;;1.45;;
22318;SDS011;11327;52.334;9.506;2023-04-25T13:44:18;3.98;;;1.30;;
22318;SDS011;11327;52.334;9.506;2023-04-25T13:47:39;2.92;;;1.12;;
22318;SDS011;11327;52.334;9.506;2023-04-25T13:51:00;2.72;;;1.20;;
22318;SDS011;11327;52.334;9.506;2023-04-25T13:54:21;6.97;;;1.72;;
22318;SDS011;11327;52.334;9.506;2023-04-25T13:57:42;5.67;;;1.67;;
22318;SDS011;11327;52.334;9.506;2023-04-25T14:01:02;5.37;;;1.50;;
22318;SDS011;11327;52.334;9.506;2023-04-25T14:04:23;3.12;;;1.70;;
22318;SDS011;11327;52.334;9.506;2023-04-25T14:07:45;5.62;;;1.85;;
22318;SDS011;11327;52.334;9.506;2023-04-25T14:11:06;5.83;;;2.30;;
22318;SDS011;11327;52.334;9.506;2023-04-25T14:14:26;6.10;;;2.10;;
22318;SDS011;11327;52.334;9.506;2023-04-25T14:17:47;2.87;;;1.82;;
22318;SDS011;11327;52.334;9.506;2023-04-25T14:21:08;4.35;;;1.65;;
22318;SDS011;11327;52.334;9.506;2023-04-25T14:24:30;5.95;;;1.70;;
22318;SDS011;11327;52.334;9.506;2023-04-25T14:27:50;3.33;;;1.30;;
22318;SDS011;11327;52.334;9.506;2023-04-25T14:31:11;3.75;;;1.30;;
22318;SDS011;11327;52.334;9.506;2023-04-25T14:34:32;5.30;;;1.87;;
22318;SDS011;11327;52.334;9.506;2023-04-25T14:37:53;6.58;;;1.40;;
22318;SDS011;11327;52.334;9.506;2023-04-25T14:41:14;6.65;;;1.35;;
22318;SDS011;11327;52.334;9.506;2023-04-25T14:44:35;4.47;;;1.10;;
22318;SDS011;11327;52.334;9.506;2023-04-25T14:47:55;3.27;;;0.85;;
22318;SDS011;11327;52.334;9.506;2023-04-25T14:51:16;3.33;;;1.00;;
22318;SDS011;11327;52.334;9.506;2023-04-25T14:54:37;4.17;;;1.00;;
22318;SDS011;11327;52.334;9.506;2023-04-25T14:57:57;3.85;;;1.37;;
22318;SDS011;11327;52.334;9.506;2023-04-25T15:01:18;3.20;;;1.35;;
22318;SDS011;11327;52.334;9.506;2023-04-25T15:04:40;3.85;;;1.17;;
22318;SDS011;11327;52.334;9.506;2023-04-25T15:08:01;4.92;;;1.07;;
22318;SDS011;11327;52.334;9.506;2023-04-25T15:11:22;3.90;;;1.45;;
22318;SDS011;11327;52.334;9.506;2023-04-25T15:14:43;4.12;;;1.10;;
22318;SDS011;11327;52.334;9.506;2023-04-25T15:18:04;4.65;;;1.00;;
22318;SDS011;11327;52.334;9.506;2023-04-25T15:21:25;4.60;;;1.35;;
22318;SDS011;11327;52.334;9.506;2023-04-25T15:24:46;4.15;;;1.10;;
22318;SDS011;11327;52.334;9.506;2023-04-25T15:28:07;5.17;;;1.87;;
22318;SDS011;11327;52.334;9.506;2023-04-25T15:31:28;4.58;;;1.32;;
22318;SDS011;11327;52.334;9.506;2023-04-25T15:34:48;3.22;;;1.20;;
22318;SDS011;11327;52.334;9.506;2023-04-25T15:38:10;4.65;;;1.65;;
22318;SDS011;11327;52.334;9.506;2023-04-25T15:41:31;4.70;;;1.10;;
22318;SDS011;11327;52.334;9.506;2023-04-25T15:44:52;2.92;;;1.12;;
22318;SDS011;11327;52.334;9.506;2023-04-25T15:48:12;3.25;;;1.40;;
22318;SDS011;11327;52.334;9.506;2023-04-25T15:51:33;4.00;;;1.40;;
22318;SDS011;11327;52.334;9.506;2023-04-25T15:54:54;5.97;;;1.60;;
22318;SDS011;11327;52.334;9.506;2023-04-25T15:58:15;5.08;;;1.52;;
22318;SDS011;11327;52.334;9.506;2023-04-25T16:01:36;5.75;;;1.72;;
22318;SDS011;11327;52.334;9.506;2023-04-25T16:04:57;6.00;;;1.98;;
22318;SDS011;11327;52.334;9.506;2023-04-25T16:08:17;4.05;;;1.87;;
22318;SDS011;11327;52.334;9.506;2023-04-25T16:11:38;3.98;;;1.95;;
22318;SDS011;11327;52.334;9.506;2023-04-25T16:14:59;5.62;;;1.62;;
22318;SDS011;11327;52.334;9.506;2023-04-25T16:18:20;4.12;;;1.82;;
22318;SDS011;11327;52.334;9.506;2023-04-25T16:21:40;5.42;;;1.60;;
22318;SDS011;11327;52.334;9.506;2023-04-25T16:25:03;6.00;;;2.72;;
22318;SDS011;11327;52.334;9.506;2023-04-25T16:28:24;5.97;;;2.55;;
22318;SDS011;11327;52.334;9.506;2023-04-25T16:31:45;6.03;;;2.52;;
22318;SDS011;11327;52.334;9.506;2023-04-25T16:35:07;4.58;;;2.30;;
22318;SDS011;11327;52.334;9.506;2023-04-25T16:38:28;6.10;;;2.40;;
22318;SDS011;11327;52.334;9.506;2023-04-25T16:41:48;7.33;;;3.22;;
22318;SDS011;11327;52.334;9.506;2023-04-25T16:45:09;5.17;;;2.35;;
22318;SDS011;11327;52.334;9.506;2023-04-25T16:48:30;5.12;;;2.33;;
22318;SDS011;11327;52.334;9.506;2023-04-25T16:51:51;6.33;;;2.20;;
22318;SDS011;11327;52.334;9.506;2023-04-25T16:55:12;3.83;;;1.70;;
22318;SDS011;11327;52.334;9.506;2023-04-25T16:58:35;3.37;;;1.20;;
22318;SDS011;11327;52.334;9.506;2023-04-25T17:01:57;6.30;;;1.82;;
22318;SDS011;11327;52.334;9.506;2023-04-25T17:05:18;4.62;;;2.08;;
22318;SDS011;11327;52.334;9.506;2023-04-25T17:08:39;7.80;;;2.42;;
22318;SDS011;11327;52.334;9.506;2023-04-25T17:12:01;6.45;;;2.22;;
22318;SDS011;11327;52.334;9.506;2023-04-25T17:15:23;5.83;;;2.15;;
22318;SDS011;11327;52.334;9.506;2023-04-25T17:18:44;7.55;;;3.30;;
22318;SDS011;11327;52.334;9.506;2023-04-25T17:22:05;6.05;;;2.35;;
22318;SDS011;11327;52.334;9.506;2023-04-25T17:25:26;6.90;;;2.12;;
22318;SDS011;11327;52.334;9.506;2023-04-25T17:28:47;5.33;;;2.37;;
22318;SDS011;11327;52.334;9.506;2023-04-25T17:32:08;7.08;;;3.17;;
22318;SDS011;11327;52.334;9.506;2023-04-25T17:35:29;5.83;;;2.42;;
22318;SDS011;11327;52.334;9.506;2023-04-25T17:38:50;8.93;;;3.00;;
22318;SDS011;11327;52.334;9.506;2023-04-25T17:42:11;6.08;;;2.50;;
22318;SDS011;11327;52.334;9.506;2023-04-25T17:45:32;7.80;;;3.42;;
22318;SDS011;11327;52.334;9.506;2023-04-25T17:48:55;6.33;;;2.62;;
22318;SDS011;11327;52.334;9.506;2023-04-25T17:52:17;7.05;;;2.67;;
22318;SDS011;11327;52.334;9.506;2023-04-25T17:55:38;5.15;;;2.17;;
22318;SDS011;11327;52.334;9.506;2023-04-25T17:58:59;8.45;;;2.58;;
22318;SDS011;11327;52.334;9.506;2023-04-25T18:02:20;6.55;;;2.45;;
22318;SDS011;11327;52.334;9.506;2023-04-25T18:05:41;5.67;;;2.20;;
22318;SDS011;11327;52.334;9.506;2023-04-25T18:09:02;8.03;;;2.17;;
22318;SDS011;11327;52.334;9.506;2023-04-25T18:12:25;6.42;;;3.05;;
22318;SDS011;11327;52.334;9.506;2023-04-25T18:15:46;7.05;;;3.67;;
22318;SDS011;11327;52.334;9.506;2023-04-25T18:19:07;9.28;;;3.85;;
22318;SDS011;11327;52.334;9.506;2023-04-25T18:22:33;6.87;;;3.42;;
22318;SDS011;11327;52.334;9.506;2023-04-25T18:25:56;6.83;;;3.12;;
22318;SDS011;11327;52.334;9.506;2023-04-25T18:29:17;6.78;;;3.12;;
22318;SDS011;11327;52.334;9.506;2023-04-25T18:32:38;12.05;;;4.72;;
22318;SDS011;11327;52.334;9.506;2023-04-25T18:35:59;15.20;;;6.65;;
22318;SDS011;11327;52.334;9.506;2023-04-25T18:39:20;14.20;;;6.47;;
22318;SDS011;11327;52.334;9.506;2023-04-25T18:42:41;11.63;;;4.60;;
22318;SDS011;11327;52.334;9.506;2023-04-25T18:46:02;8.18;;;4.30;;
22318;SDS011;11327;52.334;9.506;2023-04-25T18:49:23;9.73;;;4.87;;
22318;SDS011;11327;52.334;9.506;2023-04-25T18:52:44;11.48;;;4.25;;
22318;SDS011;11327;52.334;9.506;2023-04-25T18:56:04;9.25;;;4.58;;
22318;SDS011;11327;52.334;9.506;2023-04-25T18:59:25;6.35;;;3.72;;
22318;SDS011;11327;52.334;9.506;2023-04-25T19:02:46;10.23;;;5.20;;
22318;SDS011;11327;52.334;9.506;2023-04-25T19:06:07;9.40;;;3.87;;
22318;SDS011;11327;52.334;9.506;2023-04-25T19:09:28;10.80;;;3.60;;
22318;SDS011;11327;52.334;9.506;2023-04-25T19:12:48;6.90;;;2.95;;
22318;SDS011;11327;52.334;9.506;2023-04-25T19:16:09;7.15;;;2.37;;
22318;SDS011;11327;52.334;9.506;2023-04-25T19:19:30;4.83;;;1.77;;
22318;SDS011;11327;52.334;9.506;2023-04-25T19:22:51;11.45;;;3.02;;
22318;SDS011;11327;52.334;9.506;2023-04-25T19:26:12;5.97;;;2.27;;
22318;SDS011;11327;52.334;9.506;2023-04-25T19:29:33;6.08;;;1.87;;
22318;SDS011;11327;52.334;9.506;2023-04-25T19:32:54;3.12;;;1.50;;
22318;SDS011;11327;52.334;9.506;2023-04-25T19:36:18;7.87;;;1.85;;
22318;SDS011;11327;52.334;9.506;2023-04-25T19:39:40;5.83;;;2.00;;
22318;SDS011;11327;52.334;9.506;2023-04-25T19:43:01;5.67;;;2.00;;
22318;SDS011;11327;52.334;9.506;2023-04-25T19:46:22;5.55;;;2.00;;
22318;SDS011;11327;52.334;9.506;2023-04-25T19:49:43;5.50;;;1.70;;
22318;SDS011;11327;52.334;9.506;2023-04-25T19:53:03;6.72;;;1.82;;
22318;SDS011;11327;52.334;9.506;2023-04-25T19:56:24;4.92;;;1.60;;
22318;SDS011;11327;52.334;9.506;2023-04-25T19:59:45;4.47;;;1.45;;
22318;SDS011;11327;52.334;9.506;2023-04-25T20:03:07;6.83;;;1.80;;
22318;SDS011;11327;52.334;9.506;2023-04-25T20:06:29;6.83;;;1.47;;
22318;SDS011;11327;52.334;9.506;2023-04-25T20:09:52;6.75;;;1.60;;